Time;durP1;ratioP1;P1;durP2;ratioP2;P2;SDS_P1;SDS_P2;PMS_P1;PMS_P2;Temp;Humidity;BMP_temperature;BMP_pressure;BME280_temperature;BME280_humidity;BME280_pressure;Samples;Min_cycle;Max_cycle;Signal;HPM_P1;HPM_P2
2022/10/12 00:00:44;;;;;;;78.85;35.85;;;;;;;;;;6168889;28;20058;-75
2022/10/12 00:03:45;;;;;;;73.22;31.45;;;;;;;;;;6168869;28;20402;-75
2022/10/12 00:06:45;;;;;;;70.07;33.15;;;;;;;;;;6172576;28;20082;-76
2022/10/12 00:09:45;;;;;;;50.33;26.55;;;;;;;;;;6172320;28;20387;-76
2022/10/12 00:12:45;;;;;;;78.43;40.35;;;;;;;;;;6173675;28;20029;-76
2022/10/12 00:15:46;;;;;;;59.97;30.10;;;;;;;;;;6173713;28;20254;-75
2022/10/12 00:18:50;;;;;;;72.43;33.15;;;;;;;;;;6173494;28;20270;-76
2022/10/12 00:21:50;;;;;;;57.90;27.75;;;;;;;;;;6177221;28;20116;-76
2022/10/12 00:24:51;;;;;;;56.65;26.23;;;;;;;;;;6175715;28;20027;-76
2022/10/12 00:27:51;;;;;;;54.92;27.08;;;;;;;;;;6160684;28;20290;-76
2022/10/12 00:30:51;;;;;;;55.58;26.20;;;;;;;;;;6173807;28;20027;-75
2022/10/12 00:33:52;;;;;;;57.83;30.53;;;;;;;;;;6176985;28;20031;-75
2022/10/12 00:36:53;;;;;;;62.87;31.73;;;;;;;;;;6177388;28;20269;-75
2022/10/12 00:39:54;;;;;;;72.00;34.22;;;;;;;;;;6177812;28;20396;-76
2022/10/12 00:42:54;;;;;;;55.42;27.60;;;;;;;;;;6159361;28;20364;-76
2022/10/12 00:45:54;;;;;;;65.07;31.00;;;;;;;;;;6173428;28;20473;-76
2022/10/12 00:49:15;;;;;;;66.30;29.90;;;;;;;;;;6177130;28;20105;-75
2022/10/12 00:52:16;;;;;;;65.88;29.90;;;;;;;;;;6175761;28;20455;-76
2022/10/12 00:55:18;;;;;;;61.08;29.25;;;;;;;;;;6177122;28;20511;-76
2022/10/12 00:58:18;;;;;;;54.50;27.00;;;;;;;;;;6178340;28;20036;-75
2022/10/12 01:01:18;;;;;;;52.30;31.08;;;;;;;;;;6170948;28;20027;-76
2022/10/12 01:04:20;;;;;;;55.08;24.83;;;;;;;;;;6169939;28;20364;-76
2022/10/12 01:07:20;;;;;;;54.55;28.50;;;;;;;;;;6175795;28;20386;-76
2022/10/12 01:10:20;;;;;;;62.00;29.37;;;;;;;;;;6174905;28;20023;-76
2022/10/12 01:13:20;;;;;;;55.72;29.05;;;;;;;;;;6177240;28;20098;-77
2022/10/12 01:16:27;;;;;;;57.85;29.55;;;;;;;;;;6175874;28;20314;-77
2022/10/12 01:19:28;;;;;;;63.85;26.02;;;;;;;;;;6158457;28;20375;-77
2022/10/12 01:22:31;;;;;;;49.15;25.02;;;;;;;;;;6175253;28;20022;-77
2022/10/12 01:25:33;;;;;;;60.85;26.20;;;;;;;;;;6157599;28;20817;-77
2022/10/12 01:28:48;;;;;;;53.58;26.48;;;;;;;;;;6176057;28;20019;-77
2022/10/12 01:31:54;;;;;;;65.75;30.25;;;;;;;;;;6175765;28;20023;-78
2022/10/12 01:34:54;;;;;;;65.32;30.52;;;;;;;;;;6175463;28;20015;-78
2022/10/12 01:38:04;;;;;;;74.35;29.05;;;;;;;;;;6177679;28;20022;-78
2022/10/12 01:41:09;;;;;;;67.57;32.40;;;;;;;;;;6182409;28;20525;-78
2022/10/12 01:44:09;;;;;;;63.00;31.90;;;;;;;;;;6175874;28;20038;-80
2022/10/12 01:47:10;;;;;;;58.08;29.95;;;;;;;;;;6177397;28;20486;-79
2022/10/12 01:50:11;;;;;;;67.43;31.58;;;;;;;;;;6176899;28;20475;-80
2022/10/12 01:53:15;;;;;;;65.10;29.73;;;;;;;;;;6158247;28;20018;-80
2022/10/12 01:56:34;;;;;;;48.38;25.77;;;;;;;;;;6158721;28;20186;-80
2022/10/12 01:59:52;;;;;;;60.90;28.73;;;;;;;;;;6156552;28;20030;-79
2022/10/12 02:03:05;;;;;;;55.40;25.27;;;;;;;;;;6176681;28;20390;-80
2022/10/12 02:06:05;;;;;;;;;;;;;;;;;;6172542;28;20027;-80
2022/10/12 02:09:11;;;;;;;52.00;23.45;;;;;;;;;;6175077;28;19913;-80
2022/10/12 02:12:13;;;;;;;51.63;25.20;;;;;;;;;;6175661;28;20514;-81
2022/10/12 02:15:14;;;;;;;64.88;29.88;;;;;;;;;;6168266;28;20055;-81
2022/10/12 02:18:17;;;;;;;76.97;36.40;;;;;;;;;;6175876;28;20019;-82
2022/10/12 02:21:19;;;;;;;64.10;33.30;;;;;;;;;;6175345;28;20027;-81
2022/10/12 02:24:19;;;;;;;76.97;37.20;;;;;;;;;;6176157;28;20023;-81
2022/10/12 02:27:20;;;;;;;72.18;34.45;;;;;;;;;;6175672;28;20085;-83
2022/10/12 02:30:20;;;;;;;72.13;35.63;;;;;;;;;;6176386;28;20023;-82
2022/10/12 02:33:43;;;;;;;68.77;33.07;;;;;;;;;;6172975;28;20037;-81
2022/10/12 02:36:44;;;;;;;72.78;33.10;;;;;;;;;;6168895;28;20129;-82
2022/10/12 02:39:47;;;;;;;73.93;32.70;;;;;;;;;;6176688;28;20085;-82
2022/10/12 02:42:50;;;;;;;59.75;29.50;;;;;;;;;;6177874;28;20274;-82
2022/10/12 02:45:52;;;;;;;52.17;28.17;;;;;;;;;;6164336;28;20054;-82
2022/10/12 02:48:53;;;;;;;52.70;23.17;;;;;;;;;;6175455;28;20030;-83
2022/10/12 02:51:54;;;;;;;50.60;23.70;;;;;;;;;;6174233;28;20040;-82
2022/10/12 02:54:54;;;;;;;51.90;25.60;;;;;;;;;;6178885;28;20457;-83
2022/10/12 02:57:54;;;;;;;54.87;27.37;;;;;;;;;;6158977;28;20050;-83
2022/10/12 03:00:55;;;;;;;47.42;24.52;;;;;;;;;;6176219;28;20254;-82
2022/10/12 03:03:55;;;;;;;66.82;27.80;;;;;;;;;;6176364;28;20019;-82
2022/10/12 03:06:55;;;;;;;59.10;31.65;;;;;;;;;;6176955;28;20073;-82
2022/10/12 03:09:55;;;;;;;61.58;33.60;;;;;;;;;;6178554;28;20011;-83
2022/10/12 03:12:55;;;;;;;68.30;32.87;;;;;;;;;;6160307;28;20109;-82
2022/10/12 03:16:00;;;;;;;71.40;38.30;;;;;;;;;;6180463;28;20026;-82
2022/10/12 03:19:00;;;;;;;74.50;40.50;;;;;;;;;;6187214;28;20027;-82
2022/10/12 03:22:00;;;;;;;83.20;39.38;;;;;;;;;;6154897;28;20018;-82
2022/10/12 03:25:00;;;;;;;84.50;41.42;;;;;;;;;;6158214;28;20026;-82
2022/10/12 03:28:01;;;;;;;98.13;52.83;;;;;;;;;;6157227;28;20106;-82
2022/10/12 03:31:01;;;;;;;96.25;48.97;;;;;;;;;;6174352;28;20011;-82
2022/10/12 03:34:02;;;;;;;103.82;49.88;;;;;;;;;;6175399;28;20014;-82
2022/10/12 03:37:02;;;;;;;106.05;55.88;;;;;;;;;;6175522;28;20035;-82
2022/10/12 03:40:02;;;;;;;63.85;33.08;;;;;;;;;;6175123;28;20042;-83
2022/10/12 03:43:02;;;;;;;51.42;25.13;;;;;;;;;;6167868;28;20400;-82
2022/10/12 03:46:03;;;;;;;52.13;27.67;;;;;;;;;;6174858;28;20495;-82
2022/10/12 03:49:03;;;;;;;61.58;28.48;;;;;;;;;;6175245;28;20070;-82
2022/10/12 03:52:03;;;;;;;55.27;25.53;;;;;;;;;;6170959;28;20110;-82
2022/10/12 03:55:03;;;;;;;55.53;26.48;;;;;;;;;;6152542;28;20094;-82
2022/10/12 03:58:04;;;;;;;53.53;27.48;;;;;;;;;;6163104;28;20042;-83
2022/10/12 04:01:04;;;;;;;55.17;25.63;;;;;;;;;;6179227;28;20101;-82
2022/10/12 04:04:04;;;;;;;60.83;27.73;;;;;;;;;;6179528;28;20089;-82
2022/10/12 04:07:04;;;;;;;68.07;32.83;;;;;;;;;;6178070;28;20027;-81
2022/10/12 04:10:05;;;;;;;53.97;24.45;;;;;;;;;;6180061;28;20025;-81
2022/10/12 04:13:05;;;;;;;52.90;24.40;;;;;;;;;;6175562;28;20022;-81
2022/10/12 04:16:06;;;;;;;63.42;30.70;;;;;;;;;;6176940;28;20106;-82
2022/10/12 04:19:09;;;;;;;65.70;30.97;;;;;;;;;;6163657;28;20033;-82
2022/10/12 04:22:09;;;;;;;61.35;32.88;;;;;;;;;;6162061;28;20479;-82
2022/10/12 04:25:10;;;;;;;67.55;30.50;;;;;;;;;;6178729;28;20073;-83
2022/10/12 04:28:11;;;;;;;65.43;33.33;;;;;;;;;;6155706;28;20015;-83
2022/10/12 04:31:11;;;;;;;58.90;27.97;;;;;;;;;;6174890;28;20015;-83
2022/10/12 04:34:11;;;;;;;63.63;31.97;;;;;;;;;;6175333;28;20102;-83
2022/10/12 04:37:11;;;;;;;58.85;28.35;;;;;;;;;;6170341;28;20038;-84
2022/10/12 04:40:12;;;;;;;77.30;34.25;;;;;;;;;;6175104;28;20030;-84
2022/10/12 04:43:12;;;;;;;71.08;32.88;;;;;;;;;;6178120;28;20442;-84
2022/10/12 04:46:12;;;;;;;57.72;29.33;;;;;;;;;;6171645;28;20051;-84
2022/10/12 04:49:12;;;;;;;59.70;29.50;;;;;;;;;;6157135;28;20400;-83
2022/10/12 04:52:13;;;;;;;78.72;34.08;;;;;;;;;;6173999;28;20516;-83
2022/10/12 04:55:13;;;;;;;67.37;30.83;;;;;;;;;;6181454;28;20006;-83
2022/10/12 04:58:13;;;;;;;66.95;33.17;;;;;;;;;;6164926;28;20062;-84
2022/10/12 05:01:13;;;;;;;66.00;29.80;;;;;;;;;;6178391;28;20037;-83
2022/10/12 05:04:14;;;;;;;58.17;29.17;;;;;;;;;;6160492;28;20371;-83
2022/10/12 05:07:14;;;;;;;60.83;29.73;;;;;;;;;;6171517;28;20023;-83
2022/10/12 05:10:14;;;;;;;62.67;32.13;;;;;;;;;;6159486;28;20379;-83
2022/10/12 05:13:15;;;;;;;60.45;32.15;;;;;;;;;;6157544;28;20007;-83
2022/10/12 05:16:15;;;;;;;75.05;32.20;;;;;;;;;;6175446;28;20027;-83
2022/10/12 05:19:15;;;;;;;66.65;35.67;;;;;;;;;;6157200;28;20027;-83
2022/10/12 05:22:15;;;;;;;62.87;32.60;;;;;;;;;;6161297;28;20029;-83
2022/10/12 05:25:16;;;;;;;60.33;31.90;;;;;;;;;;6167324;28;20023;-83
2022/10/12 05:28:16;;;;;;;54.00;30.27;;;;;;;;;;6159468;28;20145;-83
2022/10/12 05:31:16;;;;;;;49.37;25.07;;;;;;;;;;6164146;28;20015;-82
2022/10/12 05:34:16;;;;;;;54.07;27.60;;;;;;;;;;6181429;28;20020;-82
2022/10/12 05:37:16;;;;;;;59.80;27.30;;;;;;;;;;6172658;28;20463;-82
2022/10/12 05:40:17;;;;;;;42.80;25.68;;;;;;;;;;6161629;28;20027;-82
2022/10/12 05:43:17;;;;;;;43.47;20.00;;;;;;;;;;6171729;28;20023;-83
2022/10/12 05:46:17;;;;;;;44.00;23.13;;;;;;;;;;6170757;28;20046;-83
2022/10/12 05:49:17;;;;;;;43.10;23.73;;;;;;;;;;6154251;28;20637;-82
2022/10/12 05:52:17;;;;;;;48.75;23.35;;;;;;;;;;6172249;28;20016;-82
2022/10/12 05:55:17;;;;;;;56.20;27.38;;;;;;;;;;6175611;28;20152;-82
2022/10/12 05:58:18;;;;;;;44.80;24.17;;;;;;;;;;6181836;28;20026;-81
2022/10/12 06:01:18;;;;;;;44.13;25.07;;;;;;;;;;6177031;28;20297;-80
2022/10/12 06:04:18;;;;;;;43.63;23.50;;;;;;;;;;6172555;28;20027;-80
2022/10/12 06:07:18;;;;;;;49.33;23.65;;;;;;;;;;6165805;28;20285;-79
2022/10/12 06:10:19;;;;;;;40.57;23.87;;;;;;;;;;6171914;28;20019;-79
2022/10/12 06:13:19;;;;;;;42.08;23.35;;;;;;;;;;6149653;28;20038;-79
2022/10/12 06:16:19;;;;;;;40.08;24.30;;;;;;;;;;6170611;28;20019;-80
2022/10/12 06:19:19;;;;;;;44.90;22.08;;;;;;;;;;6167094;28;20023;-80
2022/10/12 06:22:20;;;;;;;35.20;22.55;;;;;;;;;;6154804;28;20022;-80
2022/10/12 06:25:20;;;;;;;50.13;30.05;;;;;;;;;;6172747;28;20026;-80
2022/10/12 06:28:20;;;;;;;44.75;27.35;;;;;;;;;;6172867;28;20378;-80
2022/10/12 06:31:21;;;;;;;50.00;26.23;;;;;;;;;;6166023;28;20016;-79
2022/10/12 06:34:21;;;;;;;44.30;29.10;;;;;;;;;;6174119;28;20022;-79
2022/10/12 06:37:22;;;;;;;44.70;26.80;;;;;;;;;;6168890;28;20410;-79
2022/10/12 06:40:22;;;;;;;47.17;28.50;;;;;;;;;;6155648;28;20270;-78
2022/10/12 06:43:23;;;;;;;47.33;28.53;;;;;;;;;;6173707;28;20262;-78
2022/10/12 06:46:23;;;;;;;48.85;28.52;;;;;;;;;;6173687;28;20646;-78
2022/10/12 06:49:23;;;;;;;45.20;27.15;;;;;;;;;;6169807;28;20026;-78
2022/10/12 06:52:23;;;;;;;46.43;26.00;;;;;;;;;;6173331;28;20018;-78
2022/10/12 06:55:23;;;;;;;46.23;28.83;;;;;;;;;;6172970;28;20102;-77
2022/10/12 06:58:24;;;;;;;45.57;27.70;;;;;;;;;;6170934;28;20382;-77
2022/10/12 07:01:24;;;;;;;50.35;31.73;;;;;;;;;;6172215;28;20030;-77
2022/10/12 07:04:24;;;;;;;56.80;33.92;;;;;;;;;;6172837;28;20427;-77
2022/10/12 07:07:24;;;;;;;48.80;28.25;;;;;;;;;;6172665;28;20382;-76
2022/10/12 07:10:24;;;;;;;53.93;32.40;;;;;;;;;;6171983;28;20041;-76
2022/10/12 07:13:25;;;;;;;49.27;29.70;;;;;;;;;;6172603;28;20027;-76
2022/10/12 07:16:25;;;;;;;44.83;27.92;;;;;;;;;;6171855;28;20061;-76
2022/10/12 07:19:25;;;;;;;66.15;41.20;;;;;;;;;;6168081;28;20073;-75
2022/10/12 07:22:25;;;;;;;85.37;56.20;;;;;;;;;;6171850;28;20093;-75
2022/10/12 07:25:25;;;;;;;50.17;33.33;;;;;;;;;;6171697;28;20027;-75
2022/10/12 07:28:26;;;;;;;66.10;45.20;;;;;;;;;;6171660;28;20394;-75
2022/10/12 07:31:26;;;;;;;78.77;49.17;;;;;;;;;;6167328;28;20069;-74
2022/10/12 07:34:27;;;;;;;64.50;43.42;;;;;;;;;;6172274;28;20074;-74
2022/10/12 07:37:27;;;;;;;60.23;38.80;;;;;;;;;;6168900;28;20642;-74
2022/10/12 07:40:28;;;;;;;56.50;34.47;;;;;;;;;;6168493;28;20273;-75
2022/10/12 07:43:28;;;;;;;51.97;31.33;;;;;;;;;;6168467;28;20027;-75
2022/10/12 07:46:28;;;;;;;51.13;29.57;;;;;;;;;;6171316;28;20031;-74
2022/10/12 07:49:29;;;;;;;50.10;29.02;;;;;;;;;;6170481;28;20053;-75
2022/10/12 07:52:31;;;;;;;44.03;25.07;;;;;;;;;;6171843;28;20015;-75
2022/10/12 07:55:31;;;;;;;34.20;19.88;;;;;;;;;;6171224;28;20558;-75
2022/10/12 07:58:31;;;;;;;29.47;17.80;;;;;;;;;;6170137;28;20023;-76
2022/10/12 08:01:33;;;;;;;30.73;18.93;;;;;;;;;;6164740;28;20035;-75
2022/10/12 08:04:33;;;;;;;;;;;;;;;;;;6170830;28;20018;-75
2022/10/12 08:07:33;;;;;;;39.17;19.98;;;;;;;;;;6164326;28;19922;-75
2022/10/12 08:10:34;;;;;;;39.85;20.85;;;;;;;;;;6169566;28;20019;-76
2022/10/12 08:13:35;;;;;;;34.53;22.20;;;;;;;;;;6165928;28;20375;-75
2022/10/12 08:16:35;;;;;;;37.83;23.30;;;;;;;;;;6152607;28;20029;-75
2022/10/12 08:19:35;;;;;;;35.33;22.13;;;;;;;;;;6166872;28;20240;-76
2022/10/12 08:22:36;;;;;;;44.47;25.33;;;;;;;;;;6164809;28;20150;-75
2022/10/12 08:25:36;;;;;;;39.80;23.40;;;;;;;;;;6164973;28;20118;-74
2022/10/12 08:28:37;;;;;;;31.27;22.00;;;;;;;;;;6167135;28;20021;-74
2022/10/12 08:31:38;;;;;;;37.90;21.07;;;;;;;;;;6168189;28;20019;-74
2022/10/12 08:34:38;;;;;;;30.90;17.58;;;;;;;;;;6162279;28;20015;-75
2022/10/12 08:37:38;;;;;;;29.17;16.87;;;;;;;;;;6159181;28;20071;-73
2022/10/12 08:40:57;;;;;;;29.40;14.80;;;;;;;;;;6161645;28;20575;-73
2022/10/12 08:44:10;;;;;;;22.88;13.50;;;;;;;;;;6146378;28;20038;-73
2022/10/12 08:47:14;;;;;;;23.88;13.80;;;;;;;;;;6169733;28;20030;-73
2022/10/12 08:50:22;;;;;;;20.38;12.57;;;;;;;;;;6173564;28;20019;-73
2022/10/12 08:53:25;;;;;;;22.85;13.18;;;;;;;;;;6166602;28;20031;-73
2022/10/12 08:56:25;;;;;;;21.67;11.65;;;;;;;;;;6168368;28;20075;-73
2022/10/12 08:59:27;;;;;;;19.57;11.47;;;;;;;;;;6167966;28;20023;-74
2022/10/12 09:02:30;;;;;;;17.45;9.98;;;;;;;;;;6169450;28;20015;-74
2022/10/12 09:05:34;;;;;;;13.55;8.63;;;;;;;;;;6165310;28;20038;-74
2022/10/12 09:08:46;;;;;;;18.23;8.80;;;;;;;;;;6167915;28;20011;-73
2022/10/12 09:11:46;;;;;;;13.48;6.68;;;;;;;;;;6172741;28;20058;-73
2022/10/12 09:14:49;;;;;;;11.55;5.35;;;;;;;;;;6169810;28;20034;-73
2022/10/12 09:17:53;;;;;;;16.40;7.28;;;;;;;;;;6166659;28;20082;-73
2022/10/12 09:20:54;;;;;;;14.30;4.78;;;;;;;;;;6146483;28;20435;-74
2022/10/12 09:23:55;;;;;;;13.57;4.30;;;;;;;;;;6162012;28;20085;-73
2022/10/12 09:26:59;;;;;;;12.20;4.57;;;;;;;;;;6151458;28;20027;-74
2022/10/12 09:30:01;;;;;;;12.40;4.70;;;;;;;;;;6173985;28;20019;-73
2022/10/12 09:33:19;;;;;;;13.52;4.43;;;;;;;;;;6172593;28;20031;-73
2022/10/12 09:36:20;;;;;;;13.70;6.78;;;;;;;;;;6169137;28;20019;-73
2022/10/12 09:39:25;;;;;;;12.40;4.38;;;;;;;;;;6164623;28;20038;-74
2022/10/12 09:42:25;;;;;;;10.65;3.88;;;;;;;;;;6166995;28;20321;-73
2022/10/12 09:45:27;;;;;;;8.37;3.43;;;;;;;;;;6168621;28;20058;-73
2022/10/12 09:48:27;;;;;;;12.68;3.63;;;;;;;;;;6165201;28;20534;-73
2022/10/12 09:51:29;;;;;;;9.20;3.60;;;;;;;;;;6170921;28;20022;-74
2022/10/12 09:54:29;;;;;;;;;;;;;;;;;;6171935;28;20015;-74
2022/10/12 09:57:33;;;;;;;6.15;2.80;;;;;;;;;;6170906;28;19957;-74
2022/10/12 10:00:34;;;;;;;6.70;2.28;;;;;;;;;;6168516;28;20027;-74
2022/10/12 10:03:34;;;;;;;;;;;;;;;;;;6168163;28;20371;-74
2022/10/12 10:06:35;;;;;;;9.63;3.65;;;;;;;;;;6173190;28;20305;-74
2022/10/12 10:09:36;;;;;;;10.15;2.97;;;;;;;;;;6169541;28;20049;-74
2022/10/12 10:13:12;;;;;;;7.05;2.95;;;;;;;;;;6160929;28;20688;-74
2022/10/12 10:16:13;;;;;;;4.93;2.40;;;;;;;;;;6097713;28;20044;-74
2022/10/12 10:19:17;;;;;;;6.87;2.63;;;;;;;;;;6171675;28;20069;-74
2022/10/12 10:22:18;;;;;;;15.93;4.00;;;;;;;;;;6155887;28;20034;-74
2022/10/12 10:25:19;;;;;;;11.27;2.60;;;;;;;;;;6154705;28;20494;-74
2022/10/12 10:28:21;;;;;;;12.85;2.67;;;;;;;;;;6169049;28;20106;-74
2022/10/12 10:31:26;;;;;;;6.78;2.33;;;;;;;;;;6154441;28;20023;-74
2022/10/12 10:34:26;;;;;;;11.90;2.78;;;;;;;;;;6172491;28;20023;-74
2022/10/12 10:37:27;;;;;;;9.60;3.55;;;;;;;;;;6163537;28;20109;-75
2022/10/12 10:40:28;;;;;;;10.57;4.20;;;;;;;;;;6152146;28;20034;-75
2022/10/12 10:43:29;;;;;;;5.22;2.67;;;;;;;;;;6167423;28;20030;-75
2022/10/12 10:46:31;;;;;;;12.98;3.80;;;;;;;;;;6166286;28;20047;-75
2022/10/12 10:49:42;;;;;;;11.02;3.90;;;;;;;;;;6153180;28;20033;-78
2022/10/12 10:52:51;;;;;;;7.45;3.00;;;;;;;;;;6167651;28;20033;-75
2022/10/12 10:55:53;;;;;;;7.93;2.60;;;;;;;;;;6166596;28;20029;-75
2022/10/12 10:58:55;;;;;;;6.97;3.38;;;;;;;;;;6164140;28;20027;-74
2022/10/12 11:02:00;;;;;;;11.98;3.00;;;;;;;;;;6159270;28;20427;-75
2022/10/12 11:05:12;;;;;;;7.78;4.18;;;;;;;;;;6167050;28;20027;-75
2022/10/12 11:08:26;;;;;;;8.32;2.90;;;;;;;;;;6167796;28;20031;-75
2022/10/12 11:11:27;;;;;;;6.63;2.38;;;;;;;;;;6164003;28;20100;-75
2022/10/12 11:14:35;;;;;;;7.82;2.28;;;;;;;;;;6148548;28;20015;-75
2022/10/12 11:17:41;;;;;;;7.35;3.17;;;;;;;;;;6156443;28;20027;-75
2022/10/12 11:20:50;;;;;;;9.27;3.72;;;;;;;;;;6157882;28;20045;-75
2022/10/12 11:23:53;;;;;;;10.25;3.92;;;;;;;;;;6158966;28;20035;-74
2022/10/12 11:27:01;;;;;;;8.20;2.35;;;;;;;;;;6162695;28;20022;-75
2022/10/12 11:30:05;;;;;;;9.60;2.88;;;;;;;;;;6158584;28;20027;-74
2022/10/12 11:33:07;;;;;;;6.95;2.47;;;;;;;;;;6165360;28;20050;-74
2022/10/12 11:36:10;;;;;;;9.45;2.95;;;;;;;;;;6153884;28;20085;-74
2022/10/12 11:39:15;;;;;;;5.72;2.40;;;;;;;;;;6162662;28;20390;-75
2022/10/12 11:42:22;;;;;;;6.25;2.10;;;;;;;;;;6169139;28;20026;-75
2022/10/12 11:45:25;;;;;;;6.10;2.45;;;;;;;;;;6171468;28;20073;-76
2022/10/12 11:48:30;;;;;;;6.80;1.95;;;;;;;;;;6163816;28;20023;-76
2022/10/12 11:51:30;;;;;;;6.68;3.08;;;;;;;;;;6165858;28;20537;-76
2022/10/12 11:54:43;;;;;;;4.93;2.13;;;;;;;;;;6166308;28;20055;-76
2022/10/12 11:57:44;;;;;;;11.90;3.30;;;;;;;;;;6150330;28;20479;-75
2022/10/12 12:00:53;;;;;;;6.85;2.30;;;;;;;;;;6168490;28;20069;-76
2022/10/12 12:04:12;;;;;;;8.75;3.65;;;;;;;;;;6166960;28;20505;-74
2022/10/12 12:07:30;;;;;;;9.95;3.95;;;;;;;;;;6161482;28;20514;-75
2022/10/12 12:10:34;;;;;;;11.02;2.95;;;;;;;;;;6171080;28;20019;-75
2022/10/12 12:13:34;;;;;;;11.40;3.45;;;;;;;;;;6168583;28;20019;-75
2022/10/12 12:16:40;;;;;;;8.67;3.93;;;;;;;;;;6166173;28;20033;-74
2022/10/12 12:19:42;;;;;;;7.90;3.08;;;;;;;;;;6169767;28;20042;-74
2022/10/12 12:22:47;;;;;;;6.68;2.25;;;;;;;;;;6163747;28;20648;-74
2022/10/12 12:26:02;;;;;;;8.32;4.75;;;;;;;;;;6163992;28;20038;-75
2022/10/12 12:29:35;;;;;;;9.60;2.65;;;;;;;;;;6166135;28;20019;-75
2022/10/12 12:32:40;;;;;;;5.95;2.15;;;;;;;;;;6127351;28;20026;-75
2022/10/12 12:35:51;;;;;;;7.30;2.67;;;;;;;;;;6164783;28;20222;-75
2022/10/12 12:38:51;;;;;;;6.45;2.20;;;;;;;;;;6157129;28;20085;-76
2022/10/12 12:41:54;;;;;;;12.27;3.13;;;;;;;;;;6160512;28;20058;-75
2022/10/12 12:44:54;;;;;;;8.10;3.13;;;;;;;;;;6168360;28;20078;-75
2022/10/12 12:47:54;;;;;;;6.93;2.40;;;;;;;;;;6170076;28;20018;-75
2022/10/12 12:50:56;;;;;;;5.03;2.60;;;;;;;;;;6153103;28;20015;-75
2022/10/12 12:53:59;;;;;;;5.10;2.80;;;;;;;;;;6172176;28;20018;-75
2022/10/12 12:57:38;;;;;;;8.57;3.85;;;;;;;;;;6172524;28;20513;-75
2022/10/12 13:00:49;;;;;;;6.55;2.42;;;;;;;;;;6099032;29;20044;-74
2022/10/12 13:04:10;;;;;;;8.63;2.83;;;;;;;;;;6095228;28;20682;-76
2022/10/12 13:07:29;;;;;;;8.50;3.40;;;;;;;;;;6152044;28;20034;-76
2022/10/12 13:10:29;;;;;;;7.53;2.40;;;;;;;;;;6168030;28;20022;-75
2022/10/12 13:13:42;;;;;;;7.18;2.47;;;;;;;;;;6168880;28;20023;-75
2022/10/12 13:16:54;;;;;;;8.68;2.78;;;;;;;;;;6146291;28;20517;-75
2022/10/12 13:19:55;;;;;;;6.57;2.30;;;;;;;;;;6171890;28;20534;-75
2022/10/12 13:22:56;;;;;;;7.43;2.47;;;;;;;;;;6172849;28;20025;-75
2022/10/12 13:26:02;;;;;;;7.05;2.47;;;;;;;;;;6168992;28;20110;-75
2022/10/12 13:29:06;;;;;;;9.20;2.58;;;;;;;;;;6166405;28;20035;-76
2022/10/12 13:32:13;;;;;;;5.68;2.10;;;;;;;;;;6151536;28;20019;-76
2022/10/12 13:35:32;;;;;;;10.07;3.10;;;;;;;;;;6168542;28;20019;-76
2022/10/12 13:38:34;;;;;;;10.90;3.15;;;;;;;;;;6172280;28;20118;-75
2022/10/12 13:41:34;;;;;;;6.22;2.90;;;;;;;;;;6155103;28;20368;-75
2022/10/12 13:44:35;;;;;;;9.27;2.67;;;;;;;;;;6173218;28;20090;-75
2022/10/12 13:47:40;;;;;;;6.50;3.30;;;;;;;;;;6173815;28;20042;-75
2022/10/12 13:50:48;;;;;;;15.38;4.50;;;;;;;;;;6173641;28;20101;-75
2022/10/12 13:53:48;;;;;;;10.43;3.42;;;;;;;;;;6157049;28;20498;-75
2022/10/12 13:56:51;;;;;;;10.07;2.20;;;;;;;;;;6173971;28;20025;-75
2022/10/12 13:59:56;;;;;;;5.82;3.13;;;;;;;;;;6169556;28;20105;-75
2022/10/12 14:02:58;;;;;;;12.07;2.85;;;;;;;;;;6169744;28;20030;-75
2022/10/12 14:05:58;;;;;;;;;;;;;;;;;;6153197;28;20042;-77
2022/10/12 14:09:09;;;;;;;12.05;3.22;;;;;;;;;;6169083;28;19914;-75
2022/10/12 14:12:10;;;;;;;8.15;2.95;;;;;;;;;;6170278;28;20382;-74
2022/10/12 14:15:11;;;;;;;10.87;2.43;;;;;;;;;;6169900;28;20022;-75
2022/10/12 14:18:30;;;;;;;10.07;3.30;;;;;;;;;;6157923;28;20463;-76
2022/10/12 14:21:31;;;;;;;5.30;2.00;;;;;;;;;;6166242;28;20649;-75
2022/10/12 14:24:35;;;;;;;13.13;3.20;;;;;;;;;;6175501;28;20023;-74
2022/10/12 14:27:37;;;;;;;9.77;2.70;;;;;;;;;;6167215;28;20033;-74
2022/10/12 14:30:40;;;;;;;4.93;2.20;;;;;;;;;;6165635;28;20078;-74
2022/10/12 14:33:40;;;;;;;8.73;2.60;;;;;;;;;;6158246;28;20382;-75
2022/10/12 14:36:41;;;;;;;8.93;2.90;;;;;;;;;;6169811;28;20031;-74
2022/10/12 14:39:44;;;;;;;6.80;2.13;;;;;;;;;;6166417;28;20030;-75
2022/10/12 14:42:56;;;;;;;5.95;2.88;;;;;;;;;;6171993;28;20019;-75
2022/10/12 14:45:56;;;;;;;8.40;3.40;;;;;;;;;;6158015;28;20039;-75
2022/10/12 14:48:57;;;;;;;7.60;2.87;;;;;;;;;;6143670;28;20062;-75
2022/10/12 14:51:58;;;;;;;10.60;3.67;;;;;;;;;;6162781;28;20488;-75
2022/10/12 14:54:58;;;;;;;9.27;3.30;;;;;;;;;;6144020;29;20810;-75
2022/10/12 14:57:58;;;;;;;3.87;2.47;;;;;;;;;;6147851;29;20031;-75
2022/10/12 15:00:59;;;;;;;12.57;3.37;;;;;;;;;;6149012;28;20051;-75
2022/10/12 15:03:59;;;;;;;8.07;3.10;;;;;;;;;;6144123;28;20027;-75
2022/10/12 15:06:59;;;;;;;8.65;3.30;;;;;;;;;;6145126;28;20134;-75
2022/10/12 15:09:59;;;;;;;10.10;3.65;;;;;;;;;;6142970;28;20376;-76
2022/10/12 15:13:00;;;;;;;10.40;3.80;;;;;;;;;;6147028;29;20094;-73
2022/10/12 15:16:00;;;;;;;9.20;3.17;;;;;;;;;;6147504;28;20155;-74
2022/10/12 15:19:00;;;;;;;12.17;4.37;;;;;;;;;;6148320;29;20079;-74
2022/10/12 15:22:00;;;;;;;11.87;5.17;;;;;;;;;;6147274;29;20015;-74
2022/10/12 15:25:00;;;;;;;10.83;4.27;;;;;;;;;;6145232;28;20029;-74
2022/10/12 15:28:01;;;;;;;13.73;3.92;;;;;;;;;;6145901;28;20357;-74
2022/10/12 15:31:02;;;;;;;9.50;4.43;;;;;;;;;;6139390;29;20020;-74
2022/10/12 15:34:02;;;;;;;15.27;3.93;;;;;;;;;;6155637;28;20023;-74
2022/10/12 15:37:03;;;;;;;6.20;2.73;;;;;;;;;;6139177;28;20491;-75
2022/10/12 15:40:03;;;;;;;7.03;3.60;;;;;;;;;;6142539;28;20035;-75
2022/10/12 15:43:03;;;;;;;11.43;4.80;;;;;;;;;;6147143;29;20070;-75
2022/10/12 15:46:04;;;;;;;12.20;3.87;;;;;;;;;;6152193;28;20098;-74
2022/10/12 15:49:04;;;;;;;12.23;4.73;;;;;;;;;;6166319;28;20011;-74
2022/10/12 15:52:05;;;;;;;11.40;4.63;;;;;;;;;;6167986;28;20042;-74
2022/10/12 15:55:12;;;;;;;11.63;4.73;;;;;;;;;;6173837;28;20010;-74
2022/10/12 15:58:12;;;;;;;12.35;5.25;;;;;;;;;;6174242;28;20081;-75
2022/10/12 16:01:13;;;;;;;14.43;4.63;;;;;;;;;;6157571;28;20019;-74
2022/10/12 16:04:14;;;;;;;13.32;5.88;;;;;;;;;;6170141;28;20354;-75
2022/10/12 16:07:15;;;;;;;9.97;4.90;;;;;;;;;;6170994;28;20029;-76
2022/10/12 16:10:16;;;;;;;12.97;5.20;;;;;;;;;;6175034;28;20051;-75
2022/10/12 16:13:17;;;;;;;12.50;5.20;;;;;;;;;;6167484;28;20105;-75
2022/10/12 16:16:17;;;;;;;13.30;7.13;;;;;;;;;;6164914;28;20027;-75
2022/10/12 16:19:17;;;;;;;20.33;8.00;;;;;;;;;;6169639;28;20018;-75
2022/10/12 16:22:17;;;;;;;16.65;8.27;;;;;;;;;;6166111;28;20011;-76
2022/10/12 16:25:21;;;;;;;16.17;7.53;;;;;;;;;;6164931;28;20369;-74
2022/10/12 16:28:21;;;;;;;18.45;6.90;;;;;;;;;;6143244;28;20449;-75
2022/10/12 16:31:21;;;;;;;11.35;7.03;;;;;;;;;;6166966;28;20013;-75
2022/10/12 16:34:22;;;;;;;42.00;21.98;;;;;;;;;;6171304;28;20014;-75
2022/10/12 16:37:22;;;;;;;25.67;10.10;;;;;;;;;;6174887;28;20022;-76
2022/10/12 16:40:22;;;;;;;24.63;11.10;;;;;;;;;;6174991;28;20066;-75
2022/10/12 16:43:23;;;;;;;22.45;10.63;;;;;;;;;;6174215;28;20022;-75
2022/10/12 16:46:23;;;;;;;18.73;9.43;;;;;;;;;;6175088;28;20804;-76
2022/10/12 16:49:24;;;;;;;19.30;9.80;;;;;;;;;;6170879;28;20015;-75
2022/10/12 16:52:24;;;;;;;35.23;17.70;;;;;;;;;;6176127;28;20138;-75
2022/10/12 16:55:24;;;;;;;31.45;17.10;;;;;;;;;;6150715;28;20027;-75
2022/10/12 16:58:25;;;;;;;30.45;13.50;;;;;;;;;;6173709;28;20019;-75
2022/10/12 17:01:25;;;;;;;39.65;15.05;;;;;;;;;;6175609;28;20254;-75
2022/10/12 17:04:25;;;;;;;28.20;15.43;;;;;;;;;;6172971;28;20096;-76
2022/10/12 17:07:25;;;;;;;23.77;12.95;;;;;;;;;;6166524;28;20015;-76
2022/10/12 17:10:26;;;;;;;30.00;15.15;;;;;;;;;;6166543;28;20571;-75
2022/10/12 17:13:27;;;;;;;31.70;14.32;;;;;;;;;;6164425;28;20018;-76
2022/10/12 17:19:46;;;;;;;31.23;14.77;;;;;;;;;;6167857;28;20043;-75
2022/10/12 17:22:46;;;;;;;31.15;16.70;;;;;;;;;;6167114;28;20090;-75
2022/10/12 17:25:46;;;;;;;24.52;12.90;;;;;;;;;;6164747;28;20027;-75
2022/10/12 17:28:46;;;;;;;36.17;17.73;;;;;;;;;;6167961;28;20277;-76
2022/10/12 17:31:47;;;;;;;41.78;22.70;;;;;;;;;;6171557;28;20018;-76
2022/10/12 17:34:47;;;;;;;37.67;21.67;;;;;;;;;;6157518;28;20027;-75
2022/10/12 17:37:48;;;;;;;40.10;21.67;;;;;;;;;;6175836;28;20037;-75
2022/10/12 17:40:49;;;;;;;33.65;18.67;;;;;;;;;;6177160;28;20514;-76
2022/10/12 17:43:50;;;;;;;38.28;19.00;;;;;;;;;;6176420;28;20037;-75
2022/10/12 17:46:50;;;;;;;30.83;16.50;;;;;;;;;;6176058;28;20479;-75
2022/10/12 17:49:50;;;;;;;39.38;18.13;;;;;;;;;;6154938;28;20270;-75
2022/10/12 17:52:51;;;;;;;32.00;16.08;;;;;;;;;;6168937;28;20015;-74
2022/10/12 17:55:51;;;;;;;38.78;17.70;;;;;;;;;;6178089;28;20031;-76